sensor_id;sensor_type;location;lat;lon;timestamp;pressure;altitude;pressure_sealevel;temperature;humidity
52651;BME280;38537;47.226;39.702;2022-08-01T00:00:20;99875.34;;;25.33;42.73
52651;BME280;38537;47.226;39.702;2022-08-01T00:02:47;99919.75;;;25.44;42.73
52651;BME280;38537;47.226;39.702;2022-08-01T00:05:15;99883.03;;;25.36;42.92
52651;BME280;38537;47.226;39.702;2022-08-01T00:07:42;99905.47;;;25.41;42.94
52651;BME280;38537;47.226;39.702;2022-08-01T00:10:11;99912.03;;;25.38;43.12
52651;BME280;38537;47.226;39.702;2022-08-01T00:12:41;99911.25;;;25.34;43.68
52651;BME280;38537;47.226;39.702;2022-08-01T00:15:11;99918.63;;;25.31;43.72
52651;BME280;38537;47.226;39.702;2022-08-01T00:17:38;99882.34;;;25.24;43.77
52651;BME280;38537;47.226;39.702;2022-08-01T00:20:08;99891.75;;;25.21;43.96
52651;BME280;38537;47.226;39.702;2022-08-01T00:22:36;99879.53;;;25.14;44.28
52651;BME280;38537;47.226;39.702;2022-08-01T00:25:04;99885.22;;;25.21;44.07
52651;BME280;38537;47.226;39.702;2022-08-01T00:27:32;99888.09;;;25.17;44.38
52651;BME280;38537;47.226;39.702;2022-08-01T00:30:05;99886.06;;;25.14;44.37
52651;BME280;38537;47.226;39.702;2022-08-01T00:32:43;99892.56;;;25.18;44.53
52651;BME280;38537;47.226;39.702;2022-08-01T00:35:11;99895.09;;;25.09;44.58
52651;BME280;38537;47.226;39.702;2022-08-01T00:37:39;99882.81;;;25.12;44.50
52651;BME280;38537;47.226;39.702;2022-08-01T00:40:08;99871.84;;;25.07;44.87
52651;BME280;38537;47.226;39.702;2022-08-01T00:42:36;99887.81;;;25.01;45.17
52651;BME280;38537;47.226;39.702;2022-08-01T00:45:11;99897.97;;;25.06;45.18
52651;BME280;38537;47.226;39.702;2022-08-01T00:47:38;99879.66;;;24.96;45.18
52651;BME280;38537;47.226;39.702;2022-08-01T00:50:08;99889.47;;;24.95;45.54
52651;BME280;38537;47.226;39.702;2022-08-01T00:52:36;99884.16;;;24.97;45.40
52651;BME280;38537;47.226;39.702;2022-08-01T00:55:04;99870.66;;;24.94;45.28
52651;BME280;38537;47.226;39.702;2022-08-01T00:57:32;99892.28;;;25.02;45.73
52651;BME280;38537;47.226;39.702;2022-08-01T01:00:19;99883.34;;;24.97;45.53
52651;BME280;38537;47.226;39.702;2022-08-01T01:02:53;99900.06;;;24.98;45.75
52651;BME280;38537;47.226;39.702;2022-08-01T01:05:20;99880.47;;;24.97;45.87
52651;BME280;38537;47.226;39.702;2022-08-01T01:18:22;99892.72;;;24.97;46.20
52651;BME280;38537;47.226;39.702;2022-08-01T01:29:33;99886.59;;;24.99;46.52
52651;BME280;38537;47.226;39.702;2022-08-01T01:34:58;99878.00;;;25.02;46.30
52651;BME280;38537;47.226;39.702;2022-08-01T01:37:29;99884.53;;;25.03;46.27
52651;BME280;38537;47.226;39.702;2022-08-01T01:39:59;99874.34;;;24.98;46.40
52651;BME280;38537;47.226;39.702;2022-08-01T01:42:30;99887.78;;;25.05;46.33
52651;BME280;38537;47.226;39.702;2022-08-01T01:45:00;99887.78;;;25.05;46.63
52651;BME280;38537;47.226;39.702;2022-08-01T01:47:31;99897.56;;;25.07;46.23
52651;BME280;38537;47.226;39.702;2022-08-01T01:50:00;99893.44;;;25.12;46.35
52651;BME280;38537;47.226;39.702;2022-08-01T01:52:29;99901.66;;;25.03;46.46
52651;BME280;38537;47.226;39.702;2022-08-01T01:54:59;99884.16;;;24.97;46.55
52651;BME280;38537;47.226;39.702;2022-08-01T01:57:29;99895.97;;;24.99;46.80
52651;BME280;38537;47.226;39.702;2022-08-01T01:59:58;99902.50;;;24.96;46.72
52651;BME280;38537;47.226;39.702;2022-08-01T02:02:29;99894.34;;;24.94;47.10
52651;BME280;38537;47.226;39.702;2022-08-01T02:04:58;99900.53;;;24.86;47.31
52651;BME280;38537;47.226;39.702;2022-08-01T02:07:27;99892.34;;;24.88;47.29
52651;BME280;38537;47.226;39.702;2022-08-01T02:09:55;99880.56;;;24.79;47.51
52651;BME280;38537;47.226;39.702;2022-08-01T02:12:23;99876.47;;;24.83;47.32
52651;BME280;38537;47.226;39.702;2022-08-01T02:15:12;99894.00;;;24.85;47.50
52651;BME280;38537;47.226;39.702;2022-08-01T02:17:43;99891.97;;;24.82;47.71
52651;BME280;38537;47.226;39.702;2022-08-01T02:20:12;99898.50;;;24.83;47.91
52651;BME280;38537;47.226;39.702;2022-08-01T02:23:06;99905.84;;;24.84;47.99
52651;BME280;38537;47.226;39.702;2022-08-01T02:25:44;99892.00;;;24.75;48.09
52651;BME280;38537;47.226;39.702;2022-08-01T02:28:38;99908.69;;;24.84;48.11
52651;BME280;38537;47.226;39.702;2022-08-01T02:31:08;99897.25;;;24.84;47.88
52651;BME280;38537;47.226;39.702;2022-08-01T02:33:56;99883.00;;;24.77;48.03
52651;BME280;38537;47.226;39.702;2022-08-01T02:36:26;99892.78;;;24.83;48.07
52651;BME280;38537;47.226;39.702;2022-08-01T02:39:02;99894.84;;;24.75;48.46
52651;BME280;38537;47.226;39.702;2022-08-01T02:41:33;99891.56;;;24.80;48.67
52651;BME280;38537;47.226;39.702;2022-08-01T02:44:05;99889.53;;;24.77;48.48
52651;BME280;38537;47.226;39.702;2022-08-01T02:46:51;99880.56;;;24.79;48.64
52651;BME280;38537;47.226;39.702;2022-08-01T02:49:20;99902.16;;;24.83;48.71
52651;BME280;38537;47.226;39.702;2022-08-01T02:51:49;99898.06;;;24.88;48.44
52651;BME280;38537;47.226;39.702;2022-08-01T02:54:20;99898.44;;;24.90;48.86
52651;BME280;38537;47.226;39.702;2022-08-01T02:56:50;99900.13;;;24.84;48.98
52651;BME280;38537;47.226;39.702;2022-08-01T02:59:21;99900.13;;;24.84;48.71
52651;BME280;38537;47.226;39.702;2022-08-01T03:01:55;99896.03;;;24.88;49.05
52651;BME280;38537;47.226;39.702;2022-08-01T03:04:24;99885.81;;;24.87;48.86
52651;BME280;38537;47.226;39.702;2022-08-01T03:06:54;99885.84;;;24.80;49.08
52651;BME280;38537;47.226;39.702;2022-08-01T03:09:26;99875.63;;;24.83;49.22
52651;BME280;38537;47.226;39.702;2022-08-01T03:11:59;99890.31;;;24.85;49.27
52651;BME280;38537;47.226;39.702;2022-08-01T03:14:29;99880.50;;;24.89;49.19
52651;BME280;38537;47.226;39.702;2022-08-01T03:16:58;99877.59;;;24.93;49.48
52651;BME280;38537;47.226;39.702;2022-08-01T03:19:27;99884.94;;;25.01;49.10
52651;BME280;38537;47.226;39.702;2022-08-01T03:21:57;99887.00;;;24.93;49.21
52651;BME280;38537;47.226;39.702;2022-08-01T03:24:27;99884.13;;;24.93;49.67
52651;BME280;38537;47.226;39.702;2022-08-01T03:26:56;99884.16;;;24.90;49.65
52651;BME280;38537;47.226;39.702;2022-08-01T03:29:27;99881.34;;;24.83;49.86
52651;BME280;38537;47.226;39.702;2022-08-01T03:31:57;99882.97;;;24.84;50.41
52651;BME280;38537;47.226;39.702;2022-08-01T03:34:27;99878.91;;;24.81;50.31
52651;BME280;38537;47.226;39.702;2022-08-01T03:37:07;99887.44;;;24.88;50.69
52651;BME280;38537;47.226;39.702;2022-08-01T03:39:51;99889.50;;;24.88;50.50
52651;BME280;38537;47.226;39.702;2022-08-01T03:42:24;99875.63;;;24.86;50.77
52651;BME280;38537;47.226;39.702;2022-08-01T03:44:59;99881.69;;;24.92;50.62
52651;BME280;38537;47.226;39.702;2022-08-01T03:47:32;99877.59;;;24.93;50.49
52651;BME280;38537;47.226;39.702;2022-08-01T03:50:10;99891.84;;;25.07;50.19
52651;BME280;38537;47.226;39.702;2022-08-01T03:52:39;99887.38;;;25.03;50.10
52651;BME280;38537;47.226;39.702;2022-08-01T03:55:10;99878.00;;;24.99;50.36
52651;BME280;38537;47.226;39.702;2022-08-01T03:57:38;99885.72;;;25.09;50.19
52651;BME280;38537;47.226;39.702;2022-08-01T04:00:07;99886.03;;;25.18;50.37
52651;BME280;38537;47.226;39.702;2022-08-01T04:02:39;99888.06;;;25.21;50.12
52651;BME280;38537;47.226;39.702;2022-08-01T04:05:07;99887.59;;;25.30;49.79
52651;BME280;38537;47.226;39.702;2022-08-01T04:07:34;99892.84;;;25.35;50.04
52651;BME280;38537;47.226;39.702;2022-08-01T04:10:04;99877.72;;;25.38;50.06
52651;BME280;38537;47.226;39.702;2022-08-01T04:12:31;99871.13;;;25.48;49.79
52651;BME280;38537;47.226;39.702;2022-08-01T04:14:59;99860.88;;;25.54;49.40
52651;BME280;38537;47.226;39.702;2022-08-01T04:17:30;99864.44;;;25.61;49.44
52651;BME280;38537;47.226;39.702;2022-08-01T04:19:57;99874.63;;;25.70;49.35
52651;BME280;38537;47.226;39.702;2022-08-01T04:22:24;99865.19;;;25.73;49.03
52651;BME280;38537;47.226;39.702;2022-08-01T04:24:56;99879.91;;;25.75;49.38
52651;BME280;38537;47.226;39.702;2022-08-01T04:27:29;99861.13;;;25.74;49.63
52651;BME280;38537;47.226;39.702;2022-08-01T04:30:26;99857.91;;;25.65;49.46
52651;BME280;38537;47.226;39.702;2022-08-01T04:32:55;99863.47;;;25.82;49.17
52651;BME280;38537;47.226;39.702;2022-08-01T04:35:24;99864.63;;;25.88;49.05
52651;BME280;38537;47.226;39.702;2022-08-01T04:38:17;99865.06;;;25.87;49.67
52651;BME280;38537;47.226;39.702;2022-08-01T04:40:46;99865.47;;;25.85;49.50
52651;BME280;38537;47.226;39.702;2022-08-01T04:43:14;99869.94;;;25.90;49.54
52651;BME280;38537;47.226;39.702;2022-08-01T04:45:43;99872.34;;;25.95;49.60
52651;BME280;38537;47.226;39.702;2022-08-01T04:48:13;99878.00;;;25.99;49.89
52651;BME280;38537;47.226;39.702;2022-08-01T04:50:42;99873.06;;;26.03;49.04
52651;BME280;38537;47.226;39.702;2022-08-01T04:53:17;99868.03;;;26.14;48.90
52651;BME280;38537;47.226;39.702;2022-08-01T04:55:46;99875.25;;;26.25;49.34
52651;BME280;38537;47.226;39.702;2022-08-01T04:58:16;99865.81;;;26.28;49.13
52651;BME280;38537;47.226;39.702;2022-08-01T05:00:47;99875.94;;;26.40;48.95
52651;BME280;38537;47.226;39.702;2022-08-01T05:03:15;99878.03;;;26.36;49.22
52651;BME280;38537;47.226;39.702;2022-08-01T05:05:42;99863.66;;;26.40;48.67
52651;BME280;38537;47.226;39.702;2022-08-01T05:08:09;99871.88;;;26.38;49.12
52651;BME280;38537;47.226;39.702;2022-08-01T05:10:37;99872.72;;;26.35;49.38
52651;BME280;38537;47.226;39.702;2022-08-01T05:13:04;99865.34;;;26.37;49.14
52651;BME280;38537;47.226;39.702;2022-08-01T05:15:37;99874.16;;;26.50;48.83
52651;BME280;38537;47.226;39.702;2022-08-01T05:18:04;99865.16;;;26.51;49.18
52651;BME280;38537;47.226;39.702;2022-08-01T05:20:34;99862.16;;;26.62;48.89
52651;BME280;38537;47.226;39.702;2022-08-01T05:23:02;99866.53;;;26.70;48.90
52651;BME280;38537;47.226;39.702;2022-08-01T05:25:29;99869.34;;;26.74;48.93
52651;BME280;38537;47.226;39.702;2022-08-01T05:28:16;99864.00;;;26.76;49.16
52651;BME280;38537;47.226;39.702;2022-08-01T05:30:45;99868.19;;;26.68;49.22
52651;BME280;38537;47.226;39.702;2022-08-01T05:33:12;99860.22;;;26.52;49.92
52651;BME280;38537;47.226;39.702;2022-08-01T05:35:40;99865.53;;;26.53;49.70
52651;BME280;38537;47.226;39.702;2022-08-01T05:38:15;99864.94;;;26.66;49.54
52651;BME280;38537;47.226;39.702;2022-08-01T05:40:43;99857.88;;;26.74;49.40
52651;BME280;38537;47.226;39.702;2022-08-01T05:43:10;99869.72;;;26.76;49.73
52651;BME280;38537;47.226;39.702;2022-08-01T05:45:37;99866.00;;;26.79;49.37
52651;BME280;38537;47.226;39.702;2022-08-01T05:48:05;99863.91;;;26.83;49.14
52651;BME280;38537;47.226;39.702;2022-08-01T05:50:32;99868.66;;;26.93;49.44
52651;BME280;38537;47.226;39.702;2022-08-01T05:53:00;99862.91;;;26.96;49.50
52651;BME280;38537;47.226;39.702;2022-08-01T05:55:28;99866.78;;;27.10;48.66
52651;BME280;38537;47.226;39.702;2022-08-01T05:57:55;99856.94;;;27.11;48.86
52651;BME280;38537;47.226;39.702;2022-08-01T06:00:23;99859.44;;;27.09;48.80
52651;BME280;38537;47.226;39.702;2022-08-01T06:02:51;99870.03;;;27.12;48.84
52651;BME280;38537;47.226;39.702;2022-08-01T06:05:18;99862.25;;;27.12;48.81
52651;BME280;38537;47.226;39.702;2022-08-01T06:07:46;99860.03;;;27.23;48.42
52651;BME280;38537;47.226;39.702;2022-08-01T06:10:13;99844.75;;;27.30;48.28
52651;BME280;38537;47.226;39.702;2022-08-01T06:12:40;99852.72;;;27.46;48.37
52651;BME280;38537;47.226;39.702;2022-08-01T06:15:08;99859.47;;;27.59;48.15
52651;BME280;38537;47.226;39.702;2022-08-01T06:17:35;99863.84;;;27.67;47.95
52651;BME280;38537;47.226;39.702;2022-08-01T06:20:04;99851.84;;;27.72;48.06
52651;BME280;38537;47.226;39.702;2022-08-01T06:22:33;99844.72;;;27.80;47.87
52651;BME280;38537;47.226;39.702;2022-08-01T06:25:00;99842.53;;;27.88;47.72
52651;BME280;38537;47.226;39.702;2022-08-01T06:27:29;99842.47;;;27.91;47.68
52651;BME280;38537;47.226;39.702;2022-08-01T06:29:56;99830.63;;;27.89;47.16
52651;BME280;38537;47.226;39.702;2022-08-01T06:32:23;99847.00;;;28.12;47.28
52651;BME280;38537;47.226;39.702;2022-08-01T06:34:53;99852.06;;;28.05;46.94
52651;BME280;38537;47.226;39.702;2022-08-01T06:37:22;99839.81;;;28.01;47.45
52651;BME280;38537;47.226;39.702;2022-08-01T06:39:50;99844.94;;;28.13;47.18
52651;BME280;38537;47.226;39.702;2022-08-01T06:42:17;99848.69;;;28.10;46.77
52651;BME280;38537;47.226;39.702;2022-08-01T06:44:45;99834.50;;;28.22;46.90
52651;BME280;38537;47.226;39.702;2022-08-01T06:47:12;99831.03;;;28.31;46.61
52651;BME280;38537;47.226;39.702;2022-08-01T06:49:39;99830.06;;;28.38;46.31
52651;BME280;38537;47.226;39.702;2022-08-01T06:52:07;99834.94;;;28.41;46.01
52651;BME280;38537;47.226;39.702;2022-08-01T06:54:35;99828.75;;;28.42;46.25
52651;BME280;38537;47.226;39.702;2022-08-01T06:57:06;99837.16;;;28.53;45.88
52651;BME280;38537;47.226;39.702;2022-08-01T06:59:33;99842.56;;;28.67;45.99
52651;BME280;38537;47.226;39.702;2022-08-01T07:02:02;99835.63;;;28.64;45.37
52651;BME280;38537;47.226;39.702;2022-08-01T07:04:31;99836.16;;;28.59;45.02
52651;BME280;38537;47.226;39.702;2022-08-01T07:06:59;99816.84;;;28.60;45.40
52651;BME280;38537;47.226;39.702;2022-08-01T07:09:27;99827.75;;;28.69;45.56
52651;BME280;38537;47.226;39.702;2022-08-01T07:11:54;99840.13;;;28.85;45.53
52651;BME280;38537;47.226;39.702;2022-08-01T07:14:23;99826.03;;;28.91;45.53
52651;BME280;38537;47.226;39.702;2022-08-01T07:16:50;99812.91;;;28.90;45.02
52651;BME280;38537;47.226;39.702;2022-08-01T07:19:18;99832.63;;;29.08;44.82
52651;BME280;38537;47.226;39.702;2022-08-01T07:21:45;99817.44;;;29.07;44.66
52651;BME280;38537;47.226;39.702;2022-08-01T07:24:17;99824.72;;;29.12;44.40
52651;BME280;38537;47.226;39.702;2022-08-01T07:26:48;99818.34;;;29.20;44.18
52651;BME280;38537;47.226;39.702;2022-08-01T07:29:21;99836.78;;;29.39;44.49
52651;BME280;38537;47.226;39.702;2022-08-01T07:31:52;99831.88;;;29.40;44.27
52651;BME280;38537;47.226;39.702;2022-08-01T07:34:21;99826.16;;;29.36;44.07
52651;BME280;38537;47.226;39.702;2022-08-01T07:36:49;99819.78;;;29.45;43.93
52651;BME280;38537;47.226;39.702;2022-08-01T07:39:17;99813.72;;;29.43;43.02
52651;BME280;38537;47.226;39.702;2022-08-01T07:41:44;99813.13;;;29.48;43.17
52651;BME280;38537;47.226;39.702;2022-08-01T07:44:32;99824.47;;;29.55;43.13
52651;BME280;38537;47.226;39.702;2022-08-01T07:46:59;99816.16;;;29.73;43.05
52651;BME280;38537;47.226;39.702;2022-08-01T07:49:27;99817.69;;;29.78;42.46
52651;BME280;38537;47.226;39.702;2022-08-01T07:51:54;99824.16;;;29.82;42.77
52651;BME280;38537;47.226;39.702;2022-08-01T07:54:33;99824.44;;;29.87;41.66
52651;BME280;38537;47.226;39.702;2022-08-01T07:57:02;99814.03;;;29.90;41.38
52651;BME280;38537;47.226;39.702;2022-08-01T07:59:30;99820.38;;;30.01;41.66
52651;BME280;38537;47.226;39.702;2022-08-01T08:01:57;99820.97;;;30.09;41.48
52651;BME280;38537;47.226;39.702;2022-08-01T08:04:26;99808.75;;;30.05;40.94
52651;BME280;38537;47.226;39.702;2022-08-01T08:06:54;99812.66;;;30.11;41.49
52651;BME280;38537;47.226;39.702;2022-08-01T08:09:21;99823.09;;;30.21;40.75
52651;BME280;38537;47.226;39.702;2022-08-01T08:11:49;99810.84;;;30.17;41.15
52651;BME280;38537;47.226;39.702;2022-08-01T08:14:17;99802.38;;;30.26;41.34
52651;BME280;38537;47.226;39.702;2022-08-01T08:16:45;99799.03;;;30.27;40.65
52651;BME280;38537;47.226;39.702;2022-08-01T08:19:12;99803.75;;;30.34;40.67
52651;BME280;38537;47.226;39.702;2022-08-01T08:21:40;99799.25;;;30.33;40.54
52651;BME280;38537;47.226;39.702;2022-08-01T08:24:09;99801.81;;;30.44;40.91
52651;BME280;38537;47.226;39.702;2022-08-01T08:27:00;99823.66;;;30.57;39.86
52651;BME280;38537;47.226;39.702;2022-08-01T08:29:29;99803.94;;;30.56;39.45
52651;BME280;38537;47.226;39.702;2022-08-01T08:31:58;99811.78;;;30.55;39.41
52651;BME280;38537;47.226;39.702;2022-08-01T08:34:27;99806.72;;;30.59;39.75
52651;BME280;38537;47.226;39.702;2022-08-01T08:36:55;99813.44;;;30.69;39.79
52651;BME280;38537;47.226;39.702;2022-08-01T08:39:25;99805.25;;;30.67;40.46
52651;BME280;38537;47.226;39.702;2022-08-01T08:41:52;99794.88;;;30.83;40.53
52651;BME280;38537;47.226;39.702;2022-08-01T08:44:20;99800.06;;;30.88;40.62
52651;BME280;38537;47.226;39.702;2022-08-01T08:46:49;99799.84;;;30.95;40.17
52651;BME280;38537;47.226;39.702;2022-08-01T08:49:25;99795.44;;;31.03;40.46
52651;BME280;38537;47.226;39.702;2022-08-01T08:52:03;99793.06;;;31.14;40.45
52651;BME280;38537;47.226;39.702;2022-08-01T08:54:32;99798.56;;;31.21;40.20
52651;BME280;38537;47.226;39.702;2022-08-01T08:57:01;99791.88;;;31.24;39.21
52651;BME280;38537;47.226;39.702;2022-08-01T08:59:29;99785.63;;;31.26;39.57
52651;BME280;38537;47.226;39.702;2022-08-01T09:01:57;99789.22;;;31.30;39.73
52651;BME280;38537;47.226;39.702;2022-08-01T09:04:25;99779.84;;;31.39;39.92
52651;BME280;38537;47.226;39.702;2022-08-01T09:06:53;99782.47;;;31.46;38.95
52651;BME280;38537;47.226;39.702;2022-08-01T09:09:22;99775.78;;;31.49;38.36
52651;BME280;38537;47.226;39.702;2022-08-01T09:11:50;99785.81;;;31.57;37.71
52651;BME280;38537;47.226;39.702;2022-08-01T09:14:25;99774.75;;;31.43;38.03
52651;BME280;38537;47.226;39.702;2022-08-01T09:17:03;99778.41;;;31.56;37.51
52651;BME280;38537;47.226;39.702;2022-08-01T09:19:45;99757.88;;;31.54;37.49
52651;BME280;38537;47.226;39.702;2022-08-01T09:22:18;99773.66;;;31.62;37.31
52651;BME280;38537;47.226;39.702;2022-08-01T09:25:03;99757.94;;;31.63;38.04
52651;BME280;38537;47.226;39.702;2022-08-01T09:27:31;99766.13;;;31.64;36.87
52651;BME280;38537;47.226;39.702;2022-08-01T09:30:17;99760.25;;;31.68;36.97
52651;BME280;38537;47.226;39.702;2022-08-01T09:32:59;99770.75;;;31.75;35.99
52651;BME280;38537;47.226;39.702;2022-08-01T09:35:37;99748.81;;;31.77;36.98
52651;BME280;38537;47.226;39.702;2022-08-01T09:38:17;99755.25;;;31.81;37.05
52651;BME280;38537;47.226;39.702;2022-08-01T09:40:59;99747.59;;;31.87;36.60
52651;BME280;38537;47.226;39.702;2022-08-01T09:43:29;99754.66;;;31.86;35.26
52651;BME280;38537;47.226;39.702;2022-08-01T09:45:59;99742.50;;;31.91;35.53
52651;BME280;38537;47.226;39.702;2022-08-01T09:48:27;99720.28;;;31.79;35.96
52651;BME280;38537;47.226;39.702;2022-08-01T09:50:58;99745.25;;;31.95;36.83
52651;BME280;38537;47.226;39.702;2022-08-01T09:53:41;99735.53;;;32.01;37.06
52651;BME280;38537;47.226;39.702;2022-08-01T09:56:18;99735.69;;;32.07;36.62
52651;BME280;38537;47.226;39.702;2022-08-01T10:01:25;99720.44;;;32.28;36.45
52651;BME280;38537;47.226;39.702;2022-08-01T10:04:14;99732.34;;;32.30;35.87
52651;BME280;38537;47.226;39.702;2022-08-01T10:06:46;99724.34;;;32.34;35.48
52651;BME280;38537;47.226;39.702;2022-08-01T10:09:27;99722.00;;;32.42;34.79
52651;BME280;38537;47.226;39.702;2022-08-01T10:12:10;99723.28;;;32.50;34.61
52651;BME280;38537;47.226;39.702;2022-08-01T10:14:48;99725.25;;;32.53;35.31
52651;BME280;38537;47.226;39.702;2022-08-01T10:17:24;99733.16;;;32.62;35.44
52651;BME280;38537;47.226;39.702;2022-08-01T10:20:13;99732.22;;;32.65;35.27
52651;BME280;38537;47.226;39.702;2022-08-01T10:22:59;99725.00;;;32.69;34.74
52651;BME280;38537;47.226;39.702;2022-08-01T10:25:37;99737.06;;;32.68;34.96
52651;BME280;38537;47.226;39.702;2022-08-01T10:28:17;99729.81;;;32.72;34.77
52651;BME280;38537;47.226;39.702;2022-08-01T10:30:50;99724.41;;;32.75;35.66
52651;BME280;38537;47.226;39.702;2022-08-01T10:33:22;99713.41;;;32.69;35.64
52651;BME280;38537;47.226;39.702;2022-08-01T10:36:10;99712.69;;;32.78;36.12
52651;BME280;38537;47.226;39.702;2022-08-01T10:38:38;99719.66;;;32.90;36.25
52651;BME280;38537;47.226;39.702;2022-08-01T10:41:06;99715.47;;;32.91;35.03
52651;BME280;38537;47.226;39.702;2022-08-01T10:43:35;99713.22;;;32.86;34.65
52651;BME280;38537;47.226;39.702;2022-08-01T10:46:03;99706.94;;;32.87;34.63
52651;BME280;38537;47.226;39.702;2022-08-01T10:48:43;99711.28;;;32.92;34.92
52651;BME280;38537;47.226;39.702;2022-08-01T10:51:13;99694.09;;;32.88;35.04
52651;BME280;38537;47.226;39.702;2022-08-01T10:53:51;99710.00;;;32.93;34.33
52651;BME280;38537;47.226;39.702;2022-08-01T10:56:21;99709.19;;;32.92;35.08
52651;BME280;38537;47.226;39.702;2022-08-01T10:59:03;99713.25;;;33.04;34.50
52651;BME280;38537;47.226;39.702;2022-08-01T11:01:37;99677.41;;;33.01;34.48
52651;BME280;38537;47.226;39.702;2022-08-01T11:04:14;99705.38;;;33.04;34.13
52651;BME280;38537;47.226;39.702;2022-08-01T11:07:03;99704.41;;;32.98;34.37
52651;BME280;38537;47.226;39.702;2022-08-01T11:09:41;99705.84;;;33.03;33.96
52651;BME280;38537;47.226;39.702;2022-08-01T11:12:18;99686.22;;;32.98;33.86
52651;BME280;38537;47.226;39.702;2022-08-01T11:17:36;99688.16;;;33.01;33.49
52651;BME280;38537;47.226;39.702;2022-08-01T11:28:26;99675.81;;;33.10;34.80
52651;BME280;38537;47.226;39.702;2022-08-01T11:38:46;99678.63;;;33.31;33.72
52651;BME280;38537;47.226;39.702;2022-08-01T11:41:25;99676.53;;;33.32;33.60
52651;BME280;38537;47.226;39.702;2022-08-01T11:44:07;99677.63;;;33.34;33.73
52651;BME280;38537;47.226;39.702;2022-08-01T11:46:58;99670.56;;;33.35;33.73
52651;BME280;38537;47.226;39.702;2022-08-01T11:52:06;99654.94;;;33.24;33.93
52651;BME280;38537;47.226;39.702;2022-08-01T11:54:50;99649.63;;;33.22;33.86
52651;BME280;38537;47.226;39.702;2022-08-01T11:57:20;99659.16;;;33.41;33.68
52651;BME280;38537;47.226;39.702;2022-08-01T11:59:54;99656.25;;;33.41;34.32
52651;BME280;38537;47.226;39.702;2022-08-01T12:02:39;99659.28;;;33.37;33.98
52651;BME280;38537;47.226;39.702;2022-08-01T12:05:12;99658.50;;;33.37;33.88
52651;BME280;38537;47.226;39.702;2022-08-01T12:07:43;99664.59;;;33.39;33.14
52651;BME280;38537;47.226;39.702;2022-08-01T12:10:21;99658.34;;;33.41;33.51
52651;BME280;38537;47.226;39.702;2022-08-01T12:12:51;99660.91;;;33.38;33.59
52651;BME280;38537;47.226;39.702;2022-08-01T12:15:20;99659.47;;;33.43;33.74
52651;BME280;38537;47.226;39.702;2022-08-01T12:17:51;99656.09;;;33.54;34.54
52651;BME280;38537;47.226;39.702;2022-08-01T12:20:45;99659.94;;;33.69;34.40
52651;BME280;38537;47.226;39.702;2022-08-01T12:23:23;99647.06;;;33.70;33.61
52651;BME280;38537;47.226;39.702;2022-08-01T12:25:51;99655.91;;;33.76;32.52
52651;BME280;38537;47.226;39.702;2022-08-01T12:28:19;99638.22;;;33.74;32.91
52651;BME280;38537;47.226;39.702;2022-08-01T12:30:47;99652.22;;;33.75;32.81
52651;BME280;38537;47.226;39.702;2022-08-01T12:33:17;99642.06;;;33.80;32.64
52651;BME280;38537;47.226;39.702;2022-08-01T12:35:45;99633.22;;;33.83;33.42
52651;BME280;38537;47.226;39.702;2022-08-01T12:38:16;99644.16;;;33.88;32.74
52651;BME280;38537;47.226;39.702;2022-08-01T12:40:45;99626.63;;;33.92;33.38
52651;BME280;38537;47.226;39.702;2022-08-01T12:43:21;99635.31;;;33.92;32.19
52651;BME280;38537;47.226;39.702;2022-08-01T12:45:58;99636.44;;;33.85;32.70
52651;BME280;38537;47.226;39.702;2022-08-01T12:48:27;99626.16;;;33.84;32.83
52651;BME280;38537;47.226;39.702;2022-08-01T12:50:57;99627.41;;;33.92;33.16
52651;BME280;38537;47.226;39.702;2022-08-01T12:53:27;99627.25;;;33.96;32.78
52651;BME280;38537;47.226;39.702;2022-08-01T12:56:09;99640.78;;;33.99;32.77
52651;BME280;38537;47.226;39.702;2022-08-01T12:58:39;99623.56;;;33.86;32.55
52651;BME280;38537;47.226;39.702;2022-08-01T13:01:08;99635.31;;;33.92;32.54
52651;BME280;38537;47.226;39.702;2022-08-01T13:03:37;99631.59;;;33.91;32.27
52651;BME280;38537;47.226;39.702;2022-08-01T13:06:13;99637.25;;;33.95;32.75
52651;BME280;38537;47.226;39.702;2022-08-01T13:08:43;99634.34;;;33.86;32.98
52651;BME280;38537;47.226;39.702;2022-08-01T13:11:12;99625.34;;;33.84;33.04
52651;BME280;38537;47.226;39.702;2022-08-01T13:13:49;99628.88;;;33.88;33.08
52651;BME280;38537;47.226;39.702;2022-08-01T13:16:22;99631.78;;;33.88;33.03
52651;BME280;38537;47.226;39.702;2022-08-01T13:19:05;99624.88;;;33.76;32.86
52651;BME280;38537;47.226;39.702;2022-08-01T13:21:33;99615.72;;;33.78;32.36
52651;BME280;38537;47.226;39.702;2022-08-01T13:24:26;99623.88;;;33.88;32.38
52651;BME280;38537;47.226;39.702;2022-08-01T13:27:01;99623.38;;;33.99;33.05
52651;BME280;38537;47.226;39.702;2022-08-01T13:29:37;99630.97;;;33.96;32.65
52651;BME280;38537;47.226;39.702;2022-08-01T13:32:14;99631.28;;;33.98;32.56
52651;BME280;38537;47.226;39.702;2022-08-01T13:35:07;99622.25;;;33.96;32.23
52651;BME280;38537;47.226;39.702;2022-08-01T13:37:36;99617.94;;;33.83;32.13
52651;BME280;38537;47.226;39.702;2022-08-01T13:40:09;99626.78;;;33.79;32.36
52651;BME280;38537;47.226;39.702;2022-08-01T13:42:37;99628.88;;;33.79;32.34
52651;BME280;38537;47.226;39.702;2022-08-01T13:45:06;99622.44;;;33.75;32.55
52651;BME280;38537;47.226;39.702;2022-08-01T13:47:43;99626.47;;;33.77;32.76
52651;BME280;38537;47.226;39.702;2022-08-01T13:50:32;99613.28;;;33.76;32.58
52651;BME280;38537;47.226;39.702;2022-08-01T13:53:00;99611.97;;;33.77;32.88
52651;BME280;38537;47.226;39.702;2022-08-01T13:55:28;99625.19;;;33.78;32.76
52651;BME280;38537;47.226;39.702;2022-08-01T13:58:01;99618.09;;;33.79;32.46
52651;BME280;38537;47.226;39.702;2022-08-01T14:00:28;99612.31;;;33.70;32.31